Time;durP1;ratioP1;P1;durP2;ratioP2;P2;SDS_P1;SDS_P2;PMS_P1;PMS_P2;Temp;Humidity;BMP_temperature;BMP_pressure;BME280_temperature;BME280_humidity;BME280_pressure;Samples;Min_cycle;Max_cycle;Signal;HPM_P1;HPM_P2
2024/02/24 00:00:14;;;;;;;;;;;;;;;;;;5068248;28;19924;-71
2024/02/24 00:02:39;;;;;;;;;;;;;;;;;;5065969;28;19982;-71
2024/02/24 00:05:04;;;;;;;;;;;;;;;;;;5067335;28;20466;-71
2024/02/24 00:07:32;;;;;;;;;;;;;;;;;;5065498;28;19916;-71
2024/02/24 00:09:57;;;;;;;;;;;;;;;;;;5067089;28;19926;-71
2024/02/24 00:12:22;;;;;;;;;;;;;;;;;;5065549;28;20016;-70
2024/02/24 00:14:48;;;;;;;;;;;;;;;;;;5066869;28;19931;-73
2024/02/24 00:17:13;;;;;;;;;;;;;;;;;;5067606;28;19920;-72
2024/02/24 00:19:38;;;;;;;;;;;;;;;;;;5065066;28;19924;-71
2024/02/24 00:22:04;;;;;;;;;;;;;;;;;;5069090;28;19966;-71
2024/02/24 00:27:45;;;;;;;;;;;;;;;;;;5067552;28;20055;-72
2024/02/24 00:30:11;;;;;;;;;;;;;;;;;;5066594;28;19921;-72
2024/02/24 00:32:37;;;;;;;;;;;;;;;;;;5067075;28;19920;-72
2024/02/24 00:35:04;;;;;;;;;;;;;;;;;;5068153;28;19926;-73
2024/02/24 00:37:30;;;;;;;;;;;;;;;;;;5071594;28;19916;-73
2024/02/24 00:39:58;;;;;;;;;;;;;;;;;;5072078;28;20307;-72
2024/02/24 00:42:23;;;;;;;;;;;;;;;;;;5076370;28;19920;-73
2024/02/24 00:44:48;;;;;;;;;;;;;;;;;;5090264;28;20342;-74
2024/02/24 00:47:13;;;;;;;;;;;;;;;;;;5090279;28;19969;-73
2024/02/24 00:49:39;;;;;;;;;;;;;;;;;;5090229;28;20440;-75
2024/02/24 00:52:04;;;;;;;;;;;;;;;;;;5091830;28;19920;-72
2024/02/24 00:54:30;;;;;;;;;;;;;;;;;;5073357;28;20226;-73
2024/02/24 00:56:55;;;;;;;;;;;;;;;;;;5072728;28;19920;-73
2024/02/24 00:59:20;;;;;;;;;;;;;;;;;;5075677;28;19924;-72
2024/02/24 01:01:46;;;;;;;;;;;;;;;;;;5089596;28;20006;-73
2024/02/24 01:04:15;;;;;;;;;;;;;;;;;;5071107;28;19927;-73
2024/02/24 01:06:40;;;;;;;;;;;;;;;;;;5090265;28;19916;-73
2024/02/24 01:09:06;;;;;;;;;;;;;;;;;;5090002;28;19923;-74
2024/02/24 01:11:31;;;;;;;;;;;;;;;;;;5076973;28;19972;-73
2024/02/24 01:13:56;;;;;;;;;;;;;;;;;;5088944;28;20406;-73
2024/02/24 01:16:22;;;;;;;;;;;;;;;;;;5090293;28;20366;-73
2024/02/24 01:18:47;;;;;;;;;;;;;;;;;;5087911;28;19916;-74
2024/02/24 01:21:12;;;;;;;;;;;;;;;;;;5074135;28;20322;-74
2024/02/24 01:23:38;;;;;;;;;;;;;;;;;;5075044;28;19915;-73
2024/02/24 01:26:03;;;;;;;;;;;;;;;;;;5088409;28;19978;-73
2024/02/24 01:28:31;;;;;;;;;;;;;;;;;;5073603;28;19923;-73
2024/02/24 01:30:58;;;;;;;;;;;;;;;;;;5090495;28;19951;-73
2024/02/24 01:33:24;;;;;;;;;;;;;;;;;;5071622;28;20589;-74
2024/02/24 01:35:51;;;;;;;;;;;;;;;;;;5090554;28;19920;-74
2024/02/24 01:38:17;;;;;;;;;;;;;;;;;;5088606;28;19922;-74
2024/02/24 01:40:42;;;;;;;;;;;;;;;;;;5091709;28;19923;-73
2024/02/24 01:43:07;;;;;;;;;;;;;;;;;;5068649;28;19925;-74
2024/02/24 01:45:32;;;;;;;;;;;;;;;;;;5065952;28;20430;-73
2024/02/24 01:47:58;;;;;;;;;;;;;;;;;;5068586;28;19928;-73
2024/02/24 01:50:27;;;;;;;;;;;;;;;;;;5070406;28;19931;-73
2024/02/24 01:52:55;;;;;;;;;;;;;;;;;;5067791;28;19920;-73
2024/02/24 01:55:23;;;;;;;;;;;;;;;;;;5070054;28;20625;-73
2024/02/24 01:57:50;;;;;;;;;;;;;;;;;;5070228;28;19916;-73
2024/02/24 02:00:16;;;;;;;;;;;;;;;;;;5067824;28;20374;-73
2024/02/24 02:02:41;;;;;;;;;;;;;;;;;;5069094;28;20619;-73
2024/02/24 02:05:07;;;;;;;;;;;;;;;;;;5071317;28;20552;-73
2024/02/24 02:07:34;;;;;;;;;;;;;;;;;;5068538;28;19920;-73
2024/02/24 02:10:00;;;;;;;;;;;;;;;;;;5071476;28;19931;-73
2024/02/24 02:12:25;;;;;;;;;;;;;;;;;;5050204;28;20188;-74
2024/02/24 02:14:50;;;;;;;;;;;;;;;;;;5067813;28;20544;-73
2024/02/24 02:17:16;;;;;;;;;;;;;;;;;;5067653;28;19985;-73
2024/02/24 02:19:41;;;;;;;;;;;;;;;;;;5068366;28;20206;-73
2024/02/24 02:22:10;;;;;;;;;;;;;;;;;;5069954;28;19916;-73
2024/02/24 02:24:37;;;;;;;;;;;;;;;;;;5069378;28;19920;-74
2024/02/24 02:27:06;;;;;;;;;;;;;;;;;;5067466;28;20023;-72
2024/02/24 02:29:31;;;;;;;;;;;;;;;;;;5067906;28;19928;-72
2024/02/24 02:31:57;;;;;;;;;;;;;;;;;;5055127;28;19939;-73
2024/02/24 02:34:23;;;;;;;;;;;;;;;;;;5069714;28;20398;-73
2024/02/24 02:36:48;;;;;;;;;;;;;;;;;;5068073;28;20280;-73
2024/02/24 02:39:13;;;;;;;;;;;;;;;;;;5067576;28;20295;-73
2024/02/24 02:41:39;;;;;;;;;;;;;;;;;;5069389;28;20102;-74
2024/02/24 02:44:04;;;;;;;;;;;;;;;;;;5072516;28;19963;-73
2024/02/24 02:46:29;;;;;;;;;;;;;;;;;;5069667;28;20034;-73
2024/02/24 02:48:55;;;;;;;;;;;;;;;;;;5070271;28;19920;-73
2024/02/24 02:51:20;;;;;;;;;;;;;;;;;;5070320;28;19916;-74
2024/02/24 02:53:45;;;;;;;;;;;;;;;;;;5073264;28;19933;-75
2024/02/24 02:56:13;;;;;;;;;;;;;;;;;;5073971;28;19926;-75
2024/02/24 02:58:41;;;;;;;;;;;;;;;;;;5087177;28;19987;-74
2024/02/24 03:01:06;;;;;;;;;;;;;;;;;;5072819;28;20187;-74
2024/02/24 03:03:31;;;;;;;;;;;;;;;;;;5086546;28;20649;-74
2024/02/24 03:06:01;;;;;;;;;;;;;;;;;;5073399;28;19927;-75
2024/02/24 03:08:26;;;;;;;;;;;;;;;;;;5070040;28;19920;-74
2024/02/24 03:10:51;;;;;;;;;;;;;;;;;;5072603;28;19912;-74
2024/02/24 03:13:16;;;;;;;;;;;;;;;;;;5088877;28;19920;-74
2024/02/24 03:15:42;;;;;;;;;;;;;;;;;;5069265;28;19916;-74
2024/02/24 03:18:07;;;;;;;;;;;;;;;;;;5070821;28;20584;-73
2024/02/24 03:20:33;;;;;;;;;;;;;;;;;;5085822;28;19927;-73
2024/02/24 03:22:58;;;;;;;;;;;;;;;;;;5089829;28;20004;-74
2024/02/24 03:25:26;;;;;;;;;;;;;;;;;;5088661;28;19915;-73
2024/02/24 03:27:51;;;;;;;;;;;;;;;;;;5086764;28;19926;-73
2024/02/24 03:30:17;;;;;;;;;;;;;;;;;;5069362;28;20018;-73
2024/02/24 03:32:42;;;;;;;;;;;;;;;;;;5071739;28;20362;-73
2024/02/24 03:35:07;;;;;;;;;;;;;;;;;;5089385;28;19916;-74
2024/02/24 03:37:32;;;;;;;;;;;;;;;;;;5071740;28;21137;-73
2024/02/24 03:40:00;;;;;;;;;;;;;;;;;;5071359;28;19927;-73
2024/02/24 03:42:25;;;;;;;;;;;;;;;;;;5086066;28;19931;-73
2024/02/24 03:44:51;;;;;;;;;;;;;;;;;;5086569;28;19926;-73
2024/02/24 03:47:16;;;;;;;;;;;;;;;;;;5086253;27;19916;-72
2024/02/24 03:49:41;;;;;;;;;;;;;;;;;;5070252;28;20235;-73
2024/02/24 03:52:07;;;;;;;;;;;;;;;;;;5088520;28;19923;-73
2024/02/24 03:54:32;;;;;;;;;;;;;;;;;;5070794;28;19915;-73
2024/02/24 03:56:57;;;;;;;;;;;;;;;;;;5069822;28;20339;-73
2024/02/24 03:59:23;;;;;;;;;;;;;;;;;;5087646;28;19915;-73
2024/02/24 04:01:48;;;;;;;;;;;;;;;;;;5086663;28;19920;-74
2024/02/24 04:04:13;;;;;;;;;;;;;;;;;;5069966;28;19923;-73
2024/02/24 04:06:39;;;;;;;;;;;;;;;;;;5068885;28;19979;-73
2024/02/24 04:09:04;;;;;;;;;;;;;;;;;;5088222;28;19927;-74
2024/02/24 04:11:29;;;;;;;;;;;;;;;;;;5087281;28;19916;-73
2024/02/24 04:13:55;;;;;;;;;;;;;;;;;;5085347;28;20014;-73
2024/02/24 04:16:20;;;;;;;;;;;;;;;;;;5086586;28;19958;-73
2024/02/24 04:18:50;;;;;;;;;;;;;;;;;;5071922;28;20911;-74
2024/02/24 04:21:20;;;;;;;;;;;;;;;;;;5086360;28;19930;-73
2024/02/24 04:23:46;;;;;;;;;;;;;;;;;;5072721;28;20287;-73
2024/02/24 04:26:11;;;;;;;;;;;;;;;;;;5068945;28;19920;-73
2024/02/24 04:28:36;;;;;;;;;;;;;;;;;;5087087;28;20282;-73
2024/02/24 04:31:02;;;;;;;;;;;;;;;;;;5087140;28;19916;-73
2024/02/24 04:33:27;;;;;;;;;;;;;;;;;;5070324;28;20366;-72
2024/02/24 04:35:52;;;;;;;;;;;;;;;;;;5087169;28;19973;-73
2024/02/24 04:38:18;;;;;;;;;;;;;;;;;;5074190;28;19923;-73
2024/02/24 04:40:43;;;;;;;;;;;;;;;;;;5055582;28;20034;-74
2024/02/24 04:43:08;;;;;;;;;;;;;;;;;;5071616;28;19951;-73
2024/02/24 04:45:35;;;;;;;;;;;;;;;;;;5065594;28;19927;-73
2024/02/24 04:48:00;;;;;;;;;;;;;;;;;;5071468;28;19915;-73
2024/02/24 04:50:26;;;;;;;;;;;;;;;;;;5088656;28;21303;-73
2024/02/24 04:52:52;;;;;;;;;;;;;;;;;;5069973;28;19927;-73
2024/02/24 04:55:17;;;;;;;;;;;;;;;;;;5070251;28;20006;-73
2024/02/24 04:57:42;;;;;;;;;;;;;;;;;;5085610;28;19920;-72
2024/02/24 05:00:07;;;;;;;;;;;;;;;;;;5087045;28;19963;-73
2024/02/24 05:02:34;;;;;;;;;;;;;;;;;;5085060;28;20259;-75
2024/02/24 05:04:59;;;;;;;;;;;;;;;;;;5088952;28;20163;-74
2024/02/24 05:07:25;;;;;;;;;;;;;;;;;;5086071;28;19985;-74
2024/02/24 05:09:50;;;;;;;;;;;;;;;;;;5086696;28;19922;-74
2024/02/24 05:12:15;;;;;;;;;;;;;;;;;;5086016;28;19920;-72
2024/02/24 05:14:41;;;;;;;;;;;;;;;;;;5068509;28;19963;-72
2024/02/24 05:17:12;;;;;;;;;;;;;;;;;;5071105;28;19927;-72
2024/02/24 05:19:39;;;;;;;;;;;;;;;;;;5086343;28;19990;-71
2024/02/24 05:22:05;;;;;;;;;;;;;;;;;;5073995;28;20434;-73
2024/02/24 05:24:30;;;;;;;;;;;;;;;;;;5074629;28;19915;-72
2024/02/24 05:26:55;;;;;;;;;;;;;;;;;;5075263;28;20446;-73
2024/02/24 05:29:21;;;;;;;;;;;;;;;;;;5090749;28;20367;-74
2024/02/24 05:31:46;;;;;;;;;;;;;;;;;;5089806;28;20591;-74
2024/02/24 05:34:11;;;;;;;;;;;;;;;;;;5075038;28;19916;-75
2024/02/24 05:36:36;;;;;;;;;;;;;;;;;;5090005;28;19920;-77
2024/02/24 05:39:04;;;;;;;;;;;;;;;;;;5091505;28;19927;-74
2024/02/24 05:41:29;;;;;;;;;;;;;;;;;;5073591;28;19924;-74
2024/02/24 05:43:54;;;;;;;;;;;;;;;;;;5073859;28;19920;-74
2024/02/24 05:46:19;;;;;;;;;;;;;;;;;;5058866;28;20410;-74
2024/02/24 05:48:46;;;;;;;;;;;;;;;;;;5087902;28;19919;-74
2024/02/24 05:51:11;;;;;;;;;;;;;;;;;;5074471;28;19916;-74
2024/02/24 05:53:36;;;;;;;;;;;;;;;;;;5056624;28;19972;-74
2024/02/24 05:56:01;;;;;;;;;;;;;;;;;;5074002;28;19924;-72
2024/02/24 05:58:27;;;;;;;;;;;;;;;;;;5072473;28;19926;-72
2024/02/24 06:00:52;;;;;;;;;;;;;;;;;;5073254;28;19924;-71
2024/02/24 06:03:17;;;;;;;;;;;;;;;;;;5089795;28;20344;-71
2024/02/24 06:05:42;;;;;;;;;;;;;;;;;;5075012;28;20367;-71
2024/02/24 06:08:10;;;;;;;;;;;;;;;;;;5089434;28;19963;-71
2024/02/24 06:10:35;;;;;;;;;;;;;;;;;;5089894;28;20172;-71
2024/02/24 06:13:01;;;;;;;;;;;;;;;;;;5073211;28;20011;-71
2024/02/24 06:15:26;;;;;;;;;;;;;;;;;;5089342;28;19915;-70
2024/02/24 06:17:51;;;;;;;;;;;;;;;;;;5088352;28;20690;-71
2024/02/24 06:20:17;;;;;;;;;;;;;;;;;;5087346;28;20426;-71
2024/02/24 06:22:42;;;;;;;;;;;;;;;;;;5069714;28;19936;-71
2024/02/24 06:25:08;;;;;;;;;;;;;;;;;;5072518;28;20778;-72
2024/02/24 06:27:33;;;;;;;;;;;;;;;;;;5089879;28;19912;-71
2024/02/24 06:29:59;;;;;;;;;;;;;;;;;;5069997;28;19920;-72
2024/02/24 06:32:25;;;;;;;;;;;;;;;;;;5087423;28;20027;-72
2024/02/24 06:34:50;;;;;;;;;;;;;;;;;;5089949;28;20894;-71
2024/02/24 06:37:15;;;;;;;;;;;;;;;;;;5070304;28;20389;-71
2024/02/24 06:39:40;;;;;;;;;;;;;;;;;;5071816;28;19916;-70
2024/02/24 06:42:06;;;;;;;;;;;;;;;;;;5072950;28;19923;-72
2024/02/24 06:44:31;;;;;;;;;;;;;;;;;;5070214;28;19919;-72
2024/02/24 06:46:57;;;;;;;;;;;;;;;;;;5089941;28;19920;-72
2024/02/24 06:49:22;;;;;;;;;;;;;;;;;;5069297;28;20447;-71
2024/02/24 06:51:47;;;;;;;;;;;;;;;;;;5087305;28;20031;-70
2024/02/24 06:54:13;;;;;;;;;;;;;;;;;;5088661;28;20362;-73
2024/02/24 06:56:38;;;;;;;;;;;;;;;;;;5070524;28;20222;-70
2024/02/24 06:59:06;;;;;;;;;;;;;;;;;;5069070;28;19915;-72
2024/02/24 07:01:31;;;;;;;;;;;;;;;;;;5071139;28;19947;-71
2024/02/24 07:03:56;;;;;;;;;;;;;;;;;;5089109;28;19920;-72
2024/02/24 07:06:22;;;;;;;;;;;;;;;;;;5055991;28;20159;-71
2024/02/24 07:08:47;;;;;;;;;;;;;;;;;;5087197;28;19920;-71
2024/02/24 07:11:12;;;;;;;;;;;;;;;;;;5073023;28;19920;-71
2024/02/24 07:13:38;;;;;;;;;;;;;;;;;;5058713;28;19916;-70
2024/02/24 07:16:03;;;;;;;;;;;;;;;;;;5068483;28;19920;-70
2024/02/24 07:18:31;;;;;;;;;;;;;;;;;;5073813;28;19920;-70
2024/02/24 07:20:56;;;;;;;;;;;;;;;;;;5054565;28;20134;-71
2024/02/24 07:23:24;;;;;;;;;;;;;;;;;;5088217;28;19981;-70
2024/02/24 07:25:52;;;;;;;;;;;;;;;;;;5070335;28;19943;-71
2024/02/24 07:28:17;;;;;;;;;;;;;;;;;;5070417;28;20371;-71
2024/02/24 07:30:43;;;;;;;;;;;;;;;;;;5071167;28;19926;-71
2024/02/24 07:33:10;;;;;;;;;;;;;;;;;;5071953;28;19923;-70
2024/02/24 07:35:36;;;;;;;;;;;;;;;;;;5089094;28;19916;-70
2024/02/24 07:38:01;;;;;;;;;;;;;;;;;;5072621;28;20016;-70
2024/02/24 07:40:26;;;;;;;;;;;;;;;;;;5087570;28;19924;-72
2024/02/24 07:42:54;;;;;;;;;;;;;;;;;;5067649;28;19941;-70
2024/02/24 07:45:19;;;;;;;;;;;;;;;;;;5085268;28;20075;-71
2024/02/24 07:47:45;;;;;;;;;;;;;;;;;;5086313;28;20018;-70
2024/02/24 07:50:10;;;;;;;;;;;;;;;;;;5071217;28;20047;-71
2024/02/24 07:52:37;;;;;;;;;;;;;;;;;;5071578;28;19920;-70
2024/02/24 07:55:11;;;;;;;;;;;;;;;;;;5089994;28;20383;-70
2024/02/24 07:57:36;;;;;;;;;;;;;;;;;;5070648;28;19925;-70
2024/02/24 08:00:02;;;;;;;;;;;;;;;;;;5085733;28;20455;-71
2024/02/24 08:02:28;;;;;;;;;;;;;;;;;;5069900;28;19943;-69
2024/02/24 08:04:53;;;;;;;;;;;;;;;;;;5086740;28;19915;-72
2024/02/24 08:07:21;;;;;;;;;;;;;;;;;;5070792;28;19924;-70
2024/02/24 08:09:47;;;;;;;;;;;;;;;;;;5072039;28;20002;-70
2024/02/24 08:12:12;;;;;;;;;;;;;;;;;;5088429;28;19922;-70
2024/02/24 08:14:40;;;;;;;;;;;;;;;;;;5086310;28;20479;-71
2024/02/24 08:17:06;;;;;;;;;;;;;;;;;;5087570;28;19972;-70
2024/02/24 08:19:33;;;;;;;;;;;;;;;;;;5074071;28;19946;-69
2024/02/24 08:22:02;;;;;;;;;;;;;;;;;;5086209;28;19916;-69
2024/02/24 08:24:27;;;;;;;;;;;;;;;;;;5087672;28;20421;-70
2024/02/24 08:26:52;;;;;;;;;;;;;;;;;;5069081;28;19916;-71
2024/02/24 08:29:18;;;;;;;;;;;;;;;;;;5087214;28;19920;-69
2024/02/24 08:31:43;;;;;;;;;;;;;;;;;;5071945;28;20018;-71
2024/02/24 08:34:12;;;;;;;;;;;;;;;;;;5070021;28;19995;-70
2024/02/24 08:36:37;;;;;;;;;;;;;;;;;;5071227;28;19951;-71
2024/02/24 08:39:03;;;;;;;;;;;;;;;;;;5086817;28;20305;-70
2024/02/24 08:41:31;;;;;;;;;;;;;;;;;;5071995;28;20263;-69
2024/02/24 08:43:56;;;;;;;;;;;;;;;;;;5088374;28;20014;-70
2024/02/24 08:46:22;;;;;;;;;;;;;;;;;;5086788;28;19984;-70
2024/02/24 08:48:47;;;;;;;;;;;;;;;;;;5087175;28;19920;-70
2024/02/24 08:51:12;;;;;;;;;;;;;;;;;;5047692;28;19974;-70
2024/02/24 08:53:38;;;;;;;;;;;;;;;;;;5061689;28;20351;-70
2024/02/24 08:56:03;;;;;;;;;;;;;;;;;;5089638;28;20012;-70
2024/02/24 08:58:28;;;;;;;;;;;;;;;;;;5087897;28;19916;-69
2024/02/24 09:00:56;;;;;;;;;;;;;;;;;;5091820;28;19930;-70
2024/02/24 09:03:21;;;;;;;;;;;;;;;;;;5091084;28;19920;-70
2024/02/24 09:05:46;;;;;;;;;;;;;;;;;;5090386;28;20161;-69
2024/02/24 09:08:12;;;;;;;;;;;;;;;;;;5058316;28;19915;-69
2024/02/24 09:10:37;;;;;;;;;;;;;;;;;;5074955;28;20291;-70
2024/02/24 09:13:02;;;;;;;;;;;;;;;;;;5091039;28;20374;-70
2024/02/24 09:15:27;;;;;;;;;;;;;;;;;;5091779;28;19946;-69
2024/02/24 09:17:53;;;;;;;;;;;;;;;;;;5072929;28;19920;-70
2024/02/24 09:20:18;;;;;;;;;;;;;;;;;;5071956;28;20002;-71
2024/02/24 09:22:43;;;;;;;;;;;;;;;;;;5075014;28;20526;-68
2024/02/24 09:25:09;;;;;;;;;;;;;;;;;;5090131;28;19916;-68
2024/02/24 09:27:34;;;;;;;;;;;;;;;;;;5075288;28;19989;-68
2024/02/24 09:33:16;;;;;;;;;;;;;;;;;;5089921;28;20394;-69
2024/02/24 09:35:41;;;;;;;;;;;;;;;;;;5057209;28;19920;-69
2024/02/24 09:38:06;;;;;;;;;;;;;;;;;;5090278;28;19923;-69
2024/02/24 09:40:32;;;;;;;;;;;;;;;;;;5057970;28;19920;-68
2024/02/24 09:42:57;;;;;;;;;;;;;;;;;;5072776;28;19942;-70
2024/02/24 09:45:22;;;;;;;;;;;;;;;;;;5089688;28;19938;-73
2024/02/24 09:47:48;;;;;;;;;;;;;;;;;;5072707;28;19992;-70
2024/02/24 09:50:13;;;;;;;;;;;;;;;;;;5090266;28;19915;-68
2024/02/24 09:52:41;;;;;;;;;;;;;;;;;;5072270;28;19920;-69
2024/02/24 09:55:07;;;;;;;;;;;;;;;;;;5076190;28;19920;-70
2024/02/24 09:57:32;;;;;;;;;;;;;;;;;;5070953;28;19920;-68
2024/02/24 09:59:58;;;;;;;;;;;;;;;;;;5071181;28;19927;-71
2024/02/24 10:02:23;;;;;;;;;;;;;;;;;;5072679;28;19919;-68
2024/02/24 10:04:48;;;;;;;;;;;;;;;;;;5090172;28;19920;-68
2024/02/24 10:07:17;;;;;;;;;;;;;;;;;;5089352;28;19916;-69
2024/02/24 10:09:42;;;;;;;;;;;;;;;;;;5090326;28;19959;-68
2024/02/24 10:12:08;;;;;;;;;;;;;;;;;;5090739;28;19916;-68
2024/02/24 10:14:33;;;;;;;;;;;;;;;;;;5089030;28;19966;-68
2024/02/24 10:16:59;;;;;;;;;;;;;;;;;;5090507;28;19919;-69
2024/02/24 10:19:25;;;;;;;;;;;;;;;;;;5073054;28;20335;-69
2024/02/24 10:21:50;;;;;;;;;;;;;;;;;;5091210;28;19920;-69
2024/02/24 10:24:15;;;;;;;;;;;;;;;;;;5070725;28;19969;-69
2024/02/24 10:26:41;;;;;;;;;;;;;;;;;;5073276;28;19920;-69
2024/02/24 10:29:07;;;;;;;;;;;;;;;;;;5071306;28;19919;-69
2024/02/24 10:31:33;;;;;;;;;;;;;;;;;;5074001;28;19920;-69
2024/02/24 10:33:59;;;;;;;;;;;;;;;;;;5087742;28;19916;-70
2024/02/24 10:36:24;;;;;;;;;;;;;;;;;;5088018;28;19927;-70
2024/02/24 10:38:49;;;;;;;;;;;;;;;;;;5074643;28;20368;-70
2024/02/24 10:41:14;;;;;;;;;;;;;;;;;;5070290;28;19923;-70
2024/02/24 10:43:40;;;;;;;;;;;;;;;;;;5069818;28;19916;-70
2024/02/24 10:46:05;;;;;;;;;;;;;;;;;;5089400;28;19916;-70
2024/02/24 10:48:30;;;;;;;;;;;;;;;;;;5069813;28;19915;-70
2024/02/24 10:50:56;;;;;;;;;;;;;;;;;;5088319;28;19958;-69
2024/02/24 10:53:21;;;;;;;;;;;;;;;;;;5072126;28;19916;-70
2024/02/24 10:55:46;;;;;;;;;;;;;;;;;;5088075;28;19924;-70
2024/02/24 10:58:12;;;;;;;;;;;;;;;;;;5065088;28;19916;-69
2024/02/24 11:00:38;;;;;;;;;;;;;;;;;;5071305;28;19939;-69
2024/02/24 11:03:04;;;;;;;;;;;;;;;;;;5072272;28;19920;-69
2024/02/24 11:05:29;;;;;;;;;;;;;;;;;;5089441;28;20351;-69
2024/02/24 11:07:54;;;;;;;;;;;;;;;;;;5072680;28;20035;-68
2024/02/24 11:10:19;;;;;;;;;;;;;;;;;;5088696;28;19915;-69
2024/02/24 11:12:45;;;;;;;;;;;;;;;;;;5069190;28;20367;-69
2024/02/24 11:15:10;;;;;;;;;;;;;;;;;;5087456;28;20665;-69
2024/02/24 11:17:35;;;;;;;;;;;;;;;;;;5068363;28;19942;-69
2024/02/24 11:20:01;;;;;;;;;;;;;;;;;;5088238;28;19956;-69
2024/02/24 11:22:30;;;;;;;;;;;;;;;;;;5073198;28;20979;-69
2024/02/24 11:24:55;;;;;;;;;;;;;;;;;;5088851;28;20658;-69
2024/02/24 11:27:24;;;;;;;;;;;;;;;;;;5070688;28;19915;-69
2024/02/24 11:29:49;;;;;;;;;;;;;;;;;;5073935;28;20412;-69
2024/02/24 11:32:16;;;;;;;;;;;;;;;;;;5086414;28;19946;-69
2024/02/24 11:38:00;;;;;;;;;;;;;;;;;;5085612;28;19926;-69
2024/02/24 11:40:26;;;;;;;;;;;;;;;;;;5071383;28;19924;-69
2024/02/24 11:42:54;;;;;;;;;;;;;;;;;;5086123;28;20473;-71
2024/02/24 11:45:19;;;;;;;;;;;;;;;;;;5070753;28;19980;-69
2024/02/24 11:47:44;;;;;;;;;;;;;;;;;;5085596;28;20496;-69
2024/02/24 11:50:09;;;;;;;;;;;;;;;;;;5087488;28;19931;-69
2024/02/24 11:52:35;;;;;;;;;;;;;;;;;;5072137;28;20348;-68
2024/02/24 11:55:00;;;;;;;;;;;;;;;;;;5087293;28;19923;-69
2024/02/24 11:57:27;;;;;;;;;;;;;;;;;;5068694;28;20375;-71
2024/02/24 11:59:53;;;;;;;;;;;;;;;;;;5087922;28;20079;-70
2024/02/24 12:02:18;;;;;;;;;;;;;;;;;;5087895;28;20486;-71
2024/02/24 12:04:43;;;;;;;;;;;;;;;;;;5070667;28;19916;-70
2024/02/24 12:07:12;;;;;;;;;;;;;;;;;;5086869;28;19923;-70
2024/02/24 12:09:39;;;;;;;;;;;;;;;;;;5088188;28;19973;-71
2024/02/24 12:12:04;;;;;;;;;;;;;;;;;;5070869;28;20314;-70
2024/02/24 12:14:30;;;;;;;;;;;;;;;;;;5088631;28;19916;-69
2024/02/24 12:16:56;;;;;;;;;;;;;;;;;;5085850;28;19920;-69
2024/02/24 12:19:25;;;;;;;;;;;;;;;;;;5088382;28;19965;-70
2024/02/24 12:21:50;;;;;;;;;;;;;;;;;;5069117;28;19946;-69
2024/02/24 12:24:17;;;;;;;;;;;;;;;;;;5088799;28;20355;-70
2024/02/24 12:26:42;;;;;;;;;;;;;;;;;;5071958;28;19923;-70
2024/02/24 12:29:07;;;;;;;;;;;;;;;;;;5069974;28;19919;-69
2024/02/24 12:31:32;;;;;;;;;;;;;;;;;;5088987;28;19989;-69
2024/02/24 12:33:58;;;;;;;;;;;;;;;;;;5090832;28;19919;-69
2024/02/24 12:36:24;;;;;;;;;;;;;;;;;;5084187;28;19923;-68
2024/02/24 12:38:49;;;;;;;;;;;;;;;;;;5071826;28;19923;-68
2024/02/24 12:41:14;;;;;;;;;;;;;;;;;;5092265;28;20105;-68
2024/02/24 12:43:40;;;;;;;;;;;;;;;;;;5088488;28;20768;-68
2024/02/24 12:46:05;;;;;;;;;;;;;;;;;;5072842;28;20014;-68
2024/02/24 12:48:30;;;;;;;;;;;;;;;;;;5058877;28;19923;-69
2024/02/24 12:50:57;;;;;;;;;;;;;;;;;;5092388;28;19920;-68
2024/02/24 12:53:26;;;;;;;;;;;;;;;;;;5091027;28;20113;-71
2024/02/24 12:55:51;;;;;;;;;;;;;;;;;;5090624;28;19956;-78
2024/02/24 12:58:20;;;;;;;;;;;;;;;;;;5076425;28;19927;-69
2024/02/24 13:00:46;;;;;;;;;;;;;;;;;;5059484;28;20050;-65
2024/02/24 13:03:11;;;;;;;;;;;;;;;;;;5075498;28;19916;-66
2024/02/24 13:05:37;;;;;;;;;;;;;;;;;;5075047;28;20386;-67
2024/02/24 13:08:02;;;;;;;;;;;;;;;;;;5092313;28;21974;-66
2024/02/24 13:10:28;;;;;;;;;;;;;;;;;;5091220;28;19974;-66
2024/02/24 13:12:53;;;;;;;;;;;;;;;;;;5072561;28;19912;-65
2024/02/24 13:15:18;;;;;;;;;;;;;;;;;;5059341;28;20019;-66
2024/02/24 13:17:46;;;;;;;;;;;;;;;;;;5090417;28;19920;-67
2024/02/24 13:20:12;;;;;;;;;;;;;;;;;;5074464;28;19923;-69
2024/02/24 13:22:40;;;;;;;;;;;;;;;;;;5057678;28;20095;-67
2024/02/24 13:25:07;;;;;;;;;;;;;;;;;;5059020;28;19920;-67
2024/02/24 13:27:33;;;;;;;;;;;;;;;;;;5075302;28;19972;-67
2024/02/24 13:29:58;;;;;;;;;;;;;;;;;;5071801;28;19969;-67
2024/02/24 13:32:23;;;;;;;;;;;;;;;;;;5089169;28;19922;-67
2024/02/24 13:34:54;;;;;;;;;;;;;;;;;;5089686;28;20468;-67
2024/02/24 13:37:22;;;;;;;;;;;;;;;;;;5076954;28;21349;-67
2024/02/24 13:39:52;;;;;;;;;;;;;;;;;;5074737;28;19920;-67
2024/02/24 13:42:17;;;;;;;;;;;;;;;;;;5082992;28;20359;-67
2024/02/24 13:44:45;;;;;;;;;;;;;;;;;;5091024;28;19920;-67
2024/02/24 13:47:15;;;;;;;;;;;;;;;;;;5058901;28;19919;-67
2024/02/24 13:49:43;;;;;;;;;;;;;;;;;;5072618;28;19916;-68
2024/02/24 13:52:11;;;;;;;;;;;;;;;;;;5072535;28;19920;-68
2024/02/24 13:54:37;;;;;;;;;;;;;;;;;;5088226;28;19951;-69
2024/02/24 13:57:02;;;;;;;;;;;;;;;;;;5073450;28;19916;-68
2024/02/24 13:59:27;;;;;;;;;;;;;;;;;;5072290;28;19915;-69
2024/02/24 14:01:53;;;;;;;;;;;;;;;;;;5088074;28;20491;-69
2024/02/24 14:04:18;;;;;;;;;;;;;;;;;;5089072;28;19972;-71
2024/02/24 14:06:44;;;;;;;;;;;;;;;;;;5088894;28;20482;-69
2024/02/24 14:09:09;;;;;;;;;;;;;;;;;;5083295;28;20213;-69
2024/02/24 14:11:35;;;;;;;;;;;;;;;;;;5071237;28;20647;-70
2024/02/24 14:17:17;;;;;;;;;;;;;;;;;;5090492;28;20015;-72
2024/02/24 14:19:43;;;;;;;;;;;;;;;;;;5073389;28;19915;-70
2024/02/24 14:22:09;;;;;;;;;;;;;;;;;;5090419;28;19930;-70
2024/02/24 14:24:34;;;;;;;;;;;;;;;;;;5089483;28;19985;-70
2024/02/24 14:27:00;;;;;;;;;;;;;;;;;;5090937;28;19926;-70
2024/02/24 14:29:25;;;;;;;;;;;;;;;;;;5073046;28;20274;-71
2024/02/24 14:31:50;;;;;;;;;;;;;;;;;;5073822;28;21490;-71
2024/02/24 14:34:20;;;;;;;;;;;;;;;;;;5072085;28;20311;-71
2024/02/24 14:36:45;;;;;;;;;;;;;;;;;;5089969;28;20330;-72
2024/02/24 14:39:13;;;;;;;;;;;;;;;;;;5089594;28;19916;-72
2024/02/24 14:41:41;;;;;;;;;;;;;;;;;;5070077;28;19927;-72
2024/02/24 14:44:06;;;;;;;;;;;;;;;;;;5086943;28;19923;-72
2024/02/24 14:46:32;;;;;;;;;;;;;;;;;;5073015;28;20408;-72
2024/02/24 14:48:57;;;;;;;;;;;;;;;;;;5089955;28;19916;-72
2024/02/24 14:51:22;;;;;;;;;;;;;;;;;;5073624;28;19920;-72
2024/02/24 14:53:50;;;;;;;;;;;;;;;;;;5088874;28;19923;-69
2024/02/24 14:56:16;;;;;;;;;;;;;;;;;;5072148;28;20051;-69
2024/02/24 14:58:43;;;;;;;;;;;;;;;;;;5072858;28;20334;-70
2024/02/24 15:01:09;;;;;;;;;;;;;;;;;;5087667;28;20017;-68
2024/02/24 15:03:39;;;;;;;;;;;;;;;;;;5070265;28;19920;-68
2024/02/24 15:06:07;;;;;;;;;;;;;;;;;;5074087;28;21092;-70
2024/02/24 15:08:32;;;;;;;;;;;;;;;;;;5073616;28;19928;-69
2024/02/24 15:10:58;;;;;;;;;;;;;;;;;;5074331;28;19916;-70
2024/02/24 15:13:23;;;;;;;;;;;;;;;;;;5088822;28;20003;-71
2024/02/24 15:15:48;;;;;;;;;;;;;;;;;;5069643;28;20651;-70
2024/02/24 15:18:23;;;;;;;;;;;;;;;;;;5070888;28;19919;-70
2024/02/24 15:20:48;;;;;;;;;;;;;;;;;;5089510;28;20568;-69
2024/02/24 15:23:14;;;;;;;;;;;;;;;;;;5071166;28;19927;-69
2024/02/24 15:25:39;;;;;;;;;;;;;;;;;;5056042;28;20530;-69
2024/02/24 15:28:05;;;;;;;;;;;;;;;;;;5088705;28;19920;-69
2024/02/24 15:30:30;;;;;;;;;;;;;;;;;;5069242;28;19915;-70
2024/02/24 15:32:57;;;;;;;;;;;;;;;;;;5087400;28;19950;-71
2024/02/24 15:35:23;;;;;;;;;;;;;;;;;;5086629;28;20395;-71
2024/02/24 15:37:48;;;;;;;;;;;;;;;;;;5071261;28;19926;-72
2024/02/24 15:40:16;;;;;;;;;;;;;;;;;;5088369;28;20367;-71
2024/02/24 15:42:46;;;;;;;;;;;;;;;;;;5067484;28;21331;-71
2024/02/24 15:45:11;;;;;;;;;;;;;;;;;;5069276;28;19923;-70
2024/02/24 15:47:39;;;;;;;;;;;;;;;;;;5065693;28;19923;-70
2024/02/24 15:50:06;;;;;;;;;;;;;;;;;;5069868;28;19943;-71
2024/02/24 15:52:32;;;;;;;;;;;;;;;;;;5053874;28;20010;-71
2024/02/24 15:54:57;;;;;;;;;;;;;;;;;;5066675;28;19916;-70
2024/02/24 15:57:22;;;;;;;;;;;;;;;;;;5065515;28;19960;-71
2024/02/24 15:59:48;;;;;;;;;;;;;;;;;;5066392;28;19981;-71
2024/02/24 16:02:13;;;;;;;;;;;;;;;;;;5066507;28;19925;-72
2024/02/24 16:04:41;;;;;;;;;;;;;;;;;;5067765;28;19916;-71
2024/02/24 16:07:08;;;;;;;;;;;;;;;;;;5067997;28;20001;-71
2024/02/24 16:09:35;;;;;;;;;;;;;;;;;;5066820;28;20359;-71
2024/02/24 16:12:01;;;;;;;;;;;;;;;;;;5067074;28;19916;-71
2024/02/24 16:14:26;;;;;;;;;;;;;;;;;;5065620;28;19968;-72
2024/02/24 16:16:51;;;;;;;;;;;;;;;;;;5066894;28;20326;-71
2024/02/24 16:19:16;;;;;;;;;;;;;;;;;;5068777;28;19977;-72
2024/02/24 16:21:42;;;;;;;;;;;;;;;;;;5067147;28;19963;-72
2024/02/24 16:24:08;;;;;;;;;;;;;;;;;;5067547;28;20626;-72
2024/02/24 16:26:33;;;;;;;;;;;;;;;;;;5067330;28;19920;-72
2024/02/24 16:29:01;;;;;;;;;;;;;;;;;;5067253;28;20508;-71
2024/02/24 16:31:26;;;;;;;;;;;;;;;;;;5067202;28;19942;-75
2024/02/24 16:33:53;;;;;;;;;;;;;;;;;;5065275;28;19925;-71
2024/02/24 16:36:18;;;;;;;;;;;;;;;;;;5066268;28;19926;-71
2024/02/24 16:38:44;;;;;;;;;;;;;;;;;;5067324;28;19916;-72
2024/02/24 16:41:09;;;;;;;;;;;;;;;;;;5067978;28;19920;-71
2024/02/24 16:43:34;;;;;;;;;;;;;;;;;;5049987;28;19924;-75
2024/02/24 16:46:00;;;;;;;;;;;;;;;;;;5064873;28;19916;-70
2024/02/24 16:48:25;;;;;;;;;;;;;;;;;;5065115;28;19917;-70